createdAt,value
2023-02-02T04:31:15.724Z,10.60
2023-02-02T04:46:20.429Z,10.80
2023-02-02T05:01:25.186Z,10.90
2023-02-02T05:16:29.843Z,10.80
2023-02-02T05:31:34.735Z,10.80
2023-02-02T05:46:39.319Z,10.90
2023-02-02T06:01:44.036Z,10.80
2023-02-02T06:16:48.682Z,10.50
2023-02-02T06:31:53.586Z,10.80
2023-02-02T06:46:58.308Z,11.00
2023-02-02T07:02:02.824Z,11.20
2023-02-02T07:17:07.507Z,11.10
2023-02-02T07:32:13.440Z,11.20
2023-02-02T07:47:18.230Z,11.70
2023-02-02T08:02:24.138Z,11.20
2023-02-02T08:17:28.867Z,11.70
2023-02-02T08:32:34.101Z,11.50
2023-02-02T08:47:38.469Z,11.30
2023-02-02T09:02:43.117Z,11.60
2023-02-02T09:17:47.574Z,11.40
2023-02-02T09:32:52.228Z,11.70
2023-02-02T09:47:59.506Z,11.60
2023-02-02T10:03:07.460Z,11.90
2023-02-02T10:18:20.514Z,11.80
2023-02-02T10:33:34.471Z,12.00
2023-02-02T10:48:47.726Z,11.60
2023-02-02T11:04:13.156Z,11.40
2023-02-02T11:19:28.741Z,11.60
2023-02-02T11:34:33.388Z,11.90
2023-02-02T11:49:44.520Z,12.00
2023-02-02T12:04:50.650Z,12.10
2023-02-02T12:20:22.481Z,12.40
2023-02-02T12:36:02.031Z,12.80
2023-02-02T12:51:16.106Z,12.40
2023-02-02T13:06:52.517Z,12.80
2023-02-02T13:22:00.145Z,12.50
2023-02-02T13:37:17.053Z,12.30
2023-02-02T13:52:41.242Z,12.20
2023-02-02T14:07:47.433Z,12.80
2023-02-02T14:22:52.488Z,12.40
2023-02-02T14:37:59.986Z,12.50
2023-02-02T14:53:08.587Z,12.50
2023-02-02T15:08:24.109Z,12.70
2023-02-02T15:23:32.507Z,12.70
2023-02-02T15:38:39.977Z,12.50
2023-02-02T15:53:52.705Z,12.60
2023-02-02T16:08:57.425Z,12.60
2023-02-02T16:24:05.005Z,12.50
2023-02-02T16:39:16.868Z,12.50
2023-02-02T16:54:22.192Z,12.80
2023-02-02T17:09:35.547Z,12.80
2023-02-02T17:24:40.665Z,12.80
2023-02-02T17:39:45.301Z,12.90
2023-02-02T17:54:50.246Z,12.50
2023-02-02T18:09:54.693Z,12.80
2023-02-02T18:24:59.690Z,12.80
2023-02-02T18:40:04.759Z,12.70
2023-02-02T18:55:10.245Z,12.70
2023-02-02T19:10:14.806Z,12.80
2023-02-02T19:25:34.130Z,13.30
2023-02-02T19:40:46.365Z,13.20
2023-02-02T19:55:51.607Z,12.90
2023-02-02T20:11:00.566Z,12.90
2023-02-02T20:26:15.340Z,13.10
2023-02-02T20:41:19.944Z,13.00
2023-02-02T20:56:24.627Z,12.90
2023-02-02T21:11:29.627Z,12.70
